Time;durP1;ratioP1;P1;durP2;ratioP2;P2;SDS_P1;SDS_P2;PMS_P1;PMS_P2;Temp;Humidity;BMP_temperature;BMP_pressure;BME280_temperature;BME280_humidity;BME280_pressure;Samples;Min_cycle;Max_cycle;Signal;HPM_P1;HPM_P2
2023/06/30 00:02:22;;;;;;;1999.90;999.90;;;20.30;99.90;;;;;;4987203;28;20505;-72
2023/06/30 00:04:49;;;;;;;1999.90;999.90;;;20.00;99.90;;;;;;4987808;28;20442;-71
2023/06/30 00:07:16;;;;;;;1999.90;999.90;;;19.90;99.90;;;;;;4988784;28;20481;-73
2023/06/30 00:09:44;;;;;;;1999.90;999.90;;;20.10;99.90;;;;;;4987989;28;20924;-71
2023/06/30 00:12:11;;;;;;;1999.90;999.90;;;20.10;99.90;;;;;;4985889;28;20449;-72
2023/06/30 00:14:37;;;;;;;1999.90;999.90;;;20.10;99.90;;;;;;4988021;28;20434;-70
2023/06/30 00:17:04;;;;;;;1999.90;999.90;;;20.20;99.90;;;;;;4988231;28;20505;-74
2023/06/30 00:19:31;;;;;;;1999.90;999.90;;;20.40;99.90;;;;;;4987995;28;20449;-74
2023/06/30 00:21:58;;;;;;;1999.90;999.90;;;20.60;99.90;;;;;;4988406;28;20544;-71
2023/06/30 00:24:25;;;;;;;1999.90;999.90;;;20.70;99.90;;;;;;4987857;28;20434;-74
2023/06/30 00:26:52;;;;;;;1999.90;999.90;;;20.70;99.90;;;;;;4989250;28;20500;-73
2023/06/30 00:29:19;;;;;;;1999.90;999.90;;;20.40;99.90;;;;;;4986972;28;20991;-73
2023/06/30 00:31:46;;;;;;;1999.90;999.90;;;20.20;99.90;;;;;;4988258;28;20451;-73
2023/06/30 00:34:12;;;;;;;1999.90;999.90;;;20.20;99.90;;;;;;4987887;28;20438;-73
2023/06/30 00:36:39;;;;;;;1999.90;999.90;;;20.00;99.90;;;;;;5004573;23;20444;-73
2023/06/30 00:39:06;;;;;;;1999.90;999.90;;;19.80;99.90;;;;;;4968720;28;20431;-74
2023/06/30 00:41:32;;;;;;;1999.90;999.90;;;19.80;99.90;;;;;;4967689;28;20440;-73
2023/06/30 00:44:01;;;;;;;1999.90;999.90;;;19.90;99.90;;;;;;4968717;28;20439;-74
2023/06/30 00:46:28;;;;;;;1999.90;999.90;;;19.90;99.90;;;;;;4966071;28;20524;-75
2023/06/30 00:48:55;;;;;;;1999.90;999.90;;;20.10;99.90;;;;;;4947464;28;20445;-74
2023/06/30 00:51:22;;;;;;;1999.90;999.90;;;20.00;99.90;;;;;;4948727;29;20496;-72
2023/06/30 00:53:48;;;;;;;1999.90;999.90;;;20.20;99.90;;;;;;4949639;29;20434;-73
2023/06/30 00:56:15;;;;;;;1999.90;999.90;;;20.10;99.90;;;;;;4954788;28;20862;-74
2023/06/30 00:58:43;;;;;;;1999.90;999.90;;;20.10;99.90;;;;;;4951368;28;21025;-74
2023/06/30 01:01:16;;;;;;;1999.90;999.90;;;20.30;99.90;;;;;;4947233;29;20447;-74
2023/06/30 01:03:48;;;;;;;1999.90;999.90;;;20.10;99.90;;;;;;4948540;29;20437;-74
2023/06/30 01:06:21;;;;;;;1999.90;999.90;;;20.00;99.90;;;;;;4953734;28;20436;-74
2023/06/30 01:08:55;;;;;;;1999.90;999.90;;;19.80;99.90;;;;;;4949510;28;20480;-74
2023/06/30 01:11:24;;;;;;;1999.90;999.90;;;20.00;99.90;;;;;;4948622;29;20433;-73
2023/06/30 01:13:51;;;;;;;1999.90;999.90;;;20.30;99.90;;;;;;4948339;29;20427;-74
2023/06/30 01:16:21;;;;;;;1999.90;999.90;;;20.10;99.90;;;;;;4957392;28;20452;-74
2023/06/30 01:18:52;;;;;;;1999.90;999.90;;;20.30;99.90;;;;;;4948643;28;20444;-74
2023/06/30 01:21:21;;;;;;;1999.90;999.90;;;20.30;99.90;;;;;;4948699;28;20857;-74
2023/06/30 01:23:52;;;;;;;1999.90;999.90;;;20.30;99.90;;;;;;4946739;28;20509;-73
2023/06/30 01:26:20;;;;;;;1999.90;999.90;;;20.30;99.90;;;;;;4953616;28;20549;-74
2023/06/30 01:28:47;;;;;;;1999.90;999.90;;;20.20;99.90;;;;;;4964758;28;20494;-75
2023/06/30 01:31:14;;;;;;;1999.90;999.90;;;20.20;99.90;;;;;;4955268;28;20433;-74
2023/06/30 01:33:42;;;;;;;1999.90;999.90;;;20.20;99.90;;;;;;4949863;29;20439;-75
2023/06/30 01:36:09;;;;;;;1999.90;999.90;;;20.10;99.90;;;;;;4951556;28;21638;-74
2023/06/30 01:38:35;;;;;;;1999.90;999.90;;;20.10;99.90;;;;;;4953610;28;20442;-74
2023/06/30 01:41:04;;;;;;;1999.90;999.90;;;20.20;99.90;;;;;;4952923;29;20488;-73
2023/06/30 01:43:32;;;;;;;1999.90;999.90;;;20.10;99.90;;;;;;4954776;28;20525;-76
2023/06/30 01:45:59;;;;;;;1999.90;999.90;;;20.50;99.90;;;;;;4952714;29;20441;-74
2023/06/30 01:48:26;;;;;;;1999.90;999.90;;;20.50;99.90;;;;;;4954757;28;20860;-76
2023/06/30 01:50:55;;;;;;;1999.90;999.90;;;20.60;99.90;;;;;;4951820;28;20434;-74
2023/06/30 01:53:22;;;;;;;1999.90;999.90;;;20.60;99.90;;;;;;4948820;28;20441;-74
2023/06/30 01:55:49;;;;;;;1999.90;999.90;;;20.20;99.90;;;;;;4946228;29;20973;-74
2023/06/30 01:58:18;;;;;;;1999.90;999.90;;;20.10;99.90;;;;;;4954935;28;20446;-74
2023/06/30 02:00:45;;;;;;;1999.90;999.90;;;20.00;99.90;;;;;;4952467;29;20441;-73
2023/06/30 02:03:11;;;;;;;1999.90;999.90;;;20.30;99.90;;;;;;4959280;28;20447;-74
2023/06/30 02:05:38;;;;;;;1999.90;999.90;;;20.00;99.90;;;;;;4951582;28;20878;-75
2023/06/30 02:08:06;;;;;;;1999.90;999.90;;;20.10;99.90;;;;;;4955210;28;21079;-74
2023/06/30 02:10:33;;;;;;;1999.90;999.90;;;20.00;99.90;;;;;;4952566;29;20485;-72
2023/06/30 02:13:00;;;;;;;1999.90;999.90;;;20.00;99.90;;;;;;4950733;29;20437;-76
2023/06/30 02:15:26;;;;;;;1999.90;999.90;;;20.00;99.90;;;;;;4953792;28;20522;-73
2023/06/30 02:17:54;;;;;;;1999.90;999.90;;;19.90;99.90;;;;;;4957839;28;20437;-75
2023/06/30 02:20:21;;;;;;;1999.90;999.90;;;19.70;99.90;;;;;;4950316;29;20448;-76
2023/06/30 02:22:48;;;;;;;1999.90;999.90;;;19.70;99.90;;;;;;4951121;29;20441;-73
2023/06/30 02:25:16;;;;;;;1999.90;999.90;;;19.80;99.90;;;;;;4952006;28;20496;-74
2023/06/30 02:27:45;;;;;;;1999.90;999.90;;;19.80;99.90;;;;;;4962722;28;20506;-74
2023/06/30 02:30:12;;;;;;;1999.90;999.90;;;19.80;99.90;;;;;;4956263;28;20504;-74
2023/06/30 02:32:40;;;;;;;1999.90;999.90;;;19.80;99.90;;;;;;4954986;28;20453;-74
2023/06/30 02:35:07;;;;;;;1999.90;999.90;;;19.50;99.90;;;;;;4950101;28;20443;-74
2023/06/30 02:37:34;;;;;;;1999.90;999.90;;;19.40;99.90;;;;;;4953142;28;20496;-73
2023/06/30 02:40:01;;;;;;;1999.90;999.90;;;19.50;99.90;;;;;;4952097;29;20518;-74
2023/06/30 02:42:29;;;;;;;1999.90;999.90;;;19.50;99.90;;;;;;4950030;29;20433;-74
2023/06/30 02:44:56;;;;;;;1999.90;999.90;;;19.60;99.90;;;;;;4950906;29;20438;-73
2023/06/30 02:47:22;;;;;;;1999.90;999.90;;;19.70;99.90;;;;;;4950804;28;20987;-73
2023/06/30 02:49:49;;;;;;;1999.90;999.90;;;20.00;99.90;;;;;;4951417;29;20949;-74
2023/06/30 02:52:15;;;;;;;1999.90;999.90;;;19.50;99.90;;;;;;4950498;28;20433;-74
2023/06/30 02:54:42;;;;;;;1999.90;999.90;;;19.50;99.90;;;;;;4959494;28;20440;-74
2023/06/30 02:57:09;;;;;;;1999.90;999.90;;;19.60;99.90;;;;;;4958633;28;20499;-74
2023/06/30 02:59:37;;;;;;;1999.90;999.90;;;19.50;99.90;;;;;;4958178;28;20441;-75
2023/06/30 03:02:04;;;;;;;1999.90;999.90;;;19.50;99.90;;;;;;4951115;28;20500;-73
2023/06/30 03:04:31;;;;;;;1999.90;999.90;;;19.50;99.90;;;;;;4946890;29;20442;-72
2023/06/30 03:06:57;;;;;;;1999.90;999.90;;;19.50;99.90;;;;;;4955599;28;20435;-73
2023/06/30 03:09:24;;;;;;;1999.90;999.90;;;19.70;99.90;;;;;;4952374;28;20540;-74
2023/06/30 03:11:51;;;;;;;1999.90;999.90;;;19.50;99.90;;;;;;4955334;28;20566;-74
2023/06/30 03:14:17;;;;;;;1999.90;999.90;;;19.60;99.90;;;;;;4950711;29;20446;-74
2023/06/30 03:16:45;;;;;;;1999.90;999.90;;;19.60;99.90;;;;;;4949255;28;20496;-72
2023/06/30 03:19:12;;;;;;;1999.90;999.90;;;19.60;99.90;;;;;;4948990;28;20991;-72
2023/06/30 03:21:39;;;;;;;1999.90;999.90;;;19.40;99.90;;;;;;4953509;28;20445;-72
2023/06/30 03:24:06;;;;;;;1999.90;999.90;;;19.60;99.90;;;;;;4961576;28;20492;-73
2023/06/30 03:26:32;;;;;;;1999.90;999.90;;;19.40;99.90;;;;;;4950126;29;22130;-70
2023/06/30 03:29:00;;;;;;;1999.90;999.90;;;19.30;99.90;;;;;;4948551;29;20469;-73
2023/06/30 03:31:27;;;;;;;1999.90;999.90;;;19.30;99.90;;;;;;4949204;29;20437;-72
2023/06/30 03:33:55;;;;;;;1999.90;999.90;;;19.30;99.90;;;;;;4951783;29;20528;-72
2023/06/30 03:36:22;;;;;;;1999.90;999.90;;;19.20;99.90;;;;;;4950962;28;20512;-72
2023/06/30 03:38:48;;;;;;;1999.90;999.90;;;19.30;99.90;;;;;;4952184;28;20492;-73
2023/06/30 03:41:15;;;;;;;1999.90;999.90;;;19.40;99.90;;;;;;4950760;29;20445;-75
2023/06/30 03:43:42;;;;;;;1999.90;999.90;;;19.50;99.90;;;;;;4952334;28;20446;-74
2023/06/30 03:46:09;;;;;;;1999.90;999.90;;;19.60;99.90;;;;;;4951753;28;20938;-73
2023/06/30 03:48:36;;;;;;;1999.90;999.90;;;19.60;99.90;;;;;;4949471;28;20900;-74
2023/06/30 03:51:04;;;;;;;1999.90;999.90;;;19.50;99.90;;;;;;4949898;28;20437;-70
2023/06/30 03:53:31;;;;;;;1999.90;999.90;;;19.60;99.90;;;;;;4948372;28;20438;-71
2023/06/30 03:55:58;;;;;;;1999.90;999.90;;;19.70;99.90;;;;;;4952433;28;20439;-72
2023/06/30 03:58:25;;;;;;;1999.90;999.90;;;19.50;99.90;;;;;;4952357;28;21007;-72
2023/06/30 04:00:52;;;;;;;1999.90;999.90;;;19.50;99.90;;;;;;4950975;29;20812;-73
2023/06/30 04:03:18;;;;;;;1999.90;999.90;;;19.60;99.90;;;;;;4948797;28;20459;-74
2023/06/30 04:05:45;;;;;;;1999.90;999.90;;;19.60;99.90;;;;;;4951215;28;20418;-74
2023/06/30 04:08:13;;;;;;;1999.90;999.90;;;19.70;99.90;;;;;;4950378;29;20437;-73
2023/06/30 04:10:40;;;;;;;1999.90;999.90;;;19.70;99.90;;;;;;4948018;29;20442;-73
2023/06/30 04:13:06;;;;;;;1999.90;999.90;;;19.60;99.90;;;;;;4951433;28;20441;-74
2023/06/30 04:15:33;;;;;;;1999.90;999.90;;;19.50;99.90;;;;;;4952875;28;20436;-74
2023/06/30 04:18:00;;;;;;;1999.90;999.90;;;19.50;99.90;;;;;;4953960;28;20489;-74
2023/06/30 04:20:27;;;;;;;1999.90;999.90;;;19.50;99.90;;;;;;4949582;29;20437;-74
2023/06/30 04:22:53;;;;;;;1999.90;999.90;;;19.40;99.90;;;;;;4958228;28;20429;-73
2023/06/30 04:25:21;;;;;;;1999.90;999.90;;;19.50;99.90;;;;;;4952540;28;20444;-72
2023/06/30 04:27:48;;;;;;;1999.90;999.90;;;19.50;99.90;;;;;;4949468;28;20534;-72
2023/06/30 04:30:15;;;;;;;1999.90;999.90;;;19.60;99.90;;;;;;4950195;28;20494;-75
2023/06/30 04:32:42;;;;;;;1999.90;999.90;;;19.60;99.90;;;;;;4954896;28;20794;-72
2023/06/30 04:35:09;;;;;;;1999.90;999.90;;;19.50;99.90;;;;;;4960489;28;20498;-74
2023/06/30 04:37:40;;;;;;;1999.90;999.90;;;19.40;99.90;;;;;;4955417;28;20438;-73
2023/06/30 04:40:08;;;;;;;1999.90;999.90;;;19.50;99.90;;;;;;4949385;28;20442;-73
2023/06/30 04:42:36;;;;;;;1999.90;999.90;;;19.60;99.90;;;;;;4953732;28;20535;-73
2023/06/30 04:45:05;;;;;;;1999.90;999.90;;;19.60;99.90;;;;;;4958034;28;20696;-71
2023/06/30 04:47:31;;;;;;;1999.90;999.90;;;19.60;99.90;;;;;;4959417;28;20805;-73
2023/06/30 04:49:58;;;;;;;1999.90;999.90;;;19.60;99.90;;;;;;4953297;28;20912;-72
2023/06/30 04:52:25;;;;;;;1999.90;999.90;;;19.50;99.90;;;;;;4947049;28;20437;-71
2023/06/30 04:54:51;;;;;;;1999.90;999.90;;;19.50;99.90;;;;;;4956053;28;20441;-73
2023/06/30 04:57:18;;;;;;;1999.90;999.90;;;19.50;99.90;;;;;;4956774;28;20439;-73
2023/06/30 04:59:46;;;;;;;1999.90;999.90;;;19.50;99.90;;;;;;4965249;28;20443;-74
2023/06/30 05:02:12;;;;;;;1999.90;999.90;;;19.60;99.90;;;;;;4964185;28;20490;-75
2023/06/30 05:04:39;;;;;;;1999.90;999.90;;;19.60;99.90;;;;;;4955895;28;20429;-74
2023/06/30 05:07:06;;;;;;;1999.90;999.90;;;19.60;99.90;;;;;;4957881;28;20452;-74
2023/06/30 05:09:33;;;;;;;1999.90;999.90;;;19.70;99.90;;;;;;4953209;28;20444;-73
2023/06/30 05:11:59;;;;;;;1999.90;999.90;;;19.60;99.90;;;;;;4967049;28;20442;-74
2023/06/30 05:14:26;;;;;;;1999.90;999.90;;;19.70;99.90;;;;;;4958158;28;20496;-72
2023/06/30 05:16:54;;;;;;;1999.90;999.90;;;19.70;99.90;;;;;;4962382;28;20874;-73
2023/06/30 05:19:21;;;;;;;1999.90;999.90;;;19.80;99.90;;;;;;4955860;28;20446;-73
2023/06/30 05:21:48;;;;;;;1999.90;999.90;;;19.70;99.90;;;;;;4955593;28;20437;-73
2023/06/30 05:24:14;;;;;;;1999.90;999.90;;;19.70;99.90;;;;;;4954421;28;20496;-74
2023/06/30 05:26:42;;;;;;;1999.90;999.90;;;19.50;99.90;;;;;;4955088;28;20529;-74
2023/06/30 05:29:09;;;;;;;1999.90;999.90;;;19.50;99.90;;;;;;4959357;28;20442;-73
2023/06/30 05:31:36;;;;;;;1999.90;999.90;;;19.50;99.90;;;;;;4959728;28;20523;-73
2023/06/30 05:34:04;;;;;;;1999.90;999.90;;;19.60;99.90;;;;;;4954801;28;20506;-73
2023/06/30 05:36:31;;;;;;;1999.90;999.90;;;19.60;99.90;;;;;;4962005;28;20431;-70
2023/06/30 05:38:57;;;;;;;1999.90;999.90;;;19.60;99.90;;;;;;4964075;28;20450;-73
2023/06/30 05:41:24;;;;;;;1999.90;999.90;;;19.60;99.90;;;;;;4959764;28;20486;-73
2023/06/30 05:43:51;;;;;;;1999.90;999.90;;;19.60;99.90;;;;;;4961146;28;20460;-73
2023/06/30 05:46:17;;;;;;;1999.90;999.90;;;19.60;99.90;;;;;;4957015;28;20949;-73
2023/06/30 05:48:44;;;;;;;1999.90;999.90;;;19.70;99.90;;;;;;4955997;28;20556;-74
2023/06/30 05:51:12;;;;;;;1999.90;999.90;;;19.60;99.90;;;;;;4956814;28;20437;-73
2023/06/30 05:53:39;;;;;;;1999.90;999.90;;;19.60;99.90;;;;;;4953788;28;20437;-73
2023/06/30 05:56:05;;;;;;;1999.90;999.90;;;19.50;99.90;;;;;;4955704;28;20501;-73
2023/06/30 05:58:32;;;;;;;1999.90;999.90;;;19.40;99.90;;;;;;4960229;28;20446;-73
2023/06/30 06:00:59;;;;;;;1999.90;999.90;;;19.40;99.90;;;;;;4954894;28;20912;-73
2023/06/30 06:03:30;;;;;;;1999.90;999.90;;;19.40;99.90;;;;;;4953663;28;20450;-72
2023/06/30 06:05:57;;;;;;;1999.90;999.90;;;19.30;99.90;;;;;;4958106;28;20440;-72
2023/06/30 06:08:25;;;;;;;1999.90;999.90;;;19.30;99.90;;;;;;4958237;28;20443;-74
2023/06/30 06:10:51;;;;;;;1999.90;999.90;;;19.50;99.90;;;;;;4954714;28;20504;-72
2023/06/30 06:13:33;;;;;;;1999.90;999.90;;;19.60;99.90;;;;;;4959973;28;20440;-70
2023/06/30 06:16:00;;;;;;;1999.90;999.90;;;19.40;99.90;;;;;;4949462;28;20541;-72
2023/06/30 06:18:27;;;;;;;1999.90;999.90;;;19.40;99.90;;;;;;4955718;28;20442;-72
2023/06/30 06:20:54;;;;;;;1999.90;999.90;;;19.50;99.90;;;;;;4966251;28;20440;-72
2023/06/30 06:23:21;;;;;;;1999.90;999.90;;;19.50;99.90;;;;;;4964015;28;20444;-72
2023/06/30 06:25:49;;;;;;;1999.90;999.90;;;19.50;99.90;;;;;;4954457;28;20436;-73
2023/06/30 06:28:16;;;;;;;1999.90;999.90;;;19.60;99.90;;;;;;4954646;28;21032;-73
2023/06/30 06:30:43;;;;;;;1999.90;999.90;;;19.70;99.90;;;;;;4958603;28;20932;-69
2023/06/30 06:33:10;;;;;;;1999.90;999.90;;;19.70;99.90;;;;;;4965898;28;20486;-73
2023/06/30 06:35:36;;;;;;;1999.90;999.90;;;19.60;99.90;;;;;;4954474;28;20441;-75
2023/06/30 06:38:03;;;;;;;1999.90;999.90;;;19.60;99.90;;;;;;4960735;28;20444;-73
2023/06/30 06:40:30;;;;;;;1999.90;999.90;;;19.60;99.90;;;;;;4954514;28;20441;-73
2023/06/30 06:42:58;;;;;;;1999.90;999.90;;;19.60;99.90;;;;;;4952838;28;20520;-73
2023/06/30 06:45:25;;;;;;;1999.90;999.90;;;19.60;99.90;;;;;;4953103;28;20453;-69
2023/06/30 06:48:20;;;;;;;1999.90;999.90;;;19.50;99.90;;;;;;4959527;28;20503;-72
2023/06/30 06:50:47;;;;;;;1999.90;999.90;;;19.50;99.90;;;;;;4946451;29;20442;-73
2023/06/30 06:53:19;;;;;;;1999.90;999.90;;;19.50;99.90;;;;;;4950268;28;20562;-72
2023/06/30 06:55:45;;;;;;;1999.90;999.90;;;19.60;99.90;;;;;;4949648;28;20442;-72
2023/06/30 06:58:14;;;;;;;1999.90;999.90;;;19.50;99.90;;;;;;4949906;28;20437;-73
2023/06/30 07:00:41;;;;;;;1999.90;999.90;;;19.60;99.90;;;;;;4953873;28;20429;-72
2023/06/30 07:03:07;;;;;;;1999.90;999.90;;;19.70;99.90;;;;;;4953142;28;20473;-70
2023/06/30 07:05:34;;;;;;;1999.90;999.90;;;19.70;99.90;;;;;;4953375;28;20790;-72
2023/06/30 07:08:01;;;;;;;1999.90;999.90;;;19.60;99.90;;;;;;4951038;28;20445;-73
2023/06/30 07:10:30;;;;;;;1999.90;999.90;;;19.50;99.90;;;;;;5013298;22;20446;-73
2023/06/30 07:12:56;;;;;;;1999.90;999.90;;;19.70;99.90;;;;;;4986561;28;20425;-74
2023/06/30 07:15:25;;;;;;;1999.90;999.90;;;19.20;99.90;;;;;;4991487;28;20434;-74
2023/06/30 07:17:51;;;;;;;1999.90;999.90;;;18.80;99.90;;;;;;4991502;28;20434;-72
2023/06/30 07:20:18;;;;;;;1999.90;999.90;;;18.40;99.90;;;;;;4991891;28;20422;-68
2023/06/30 07:22:45;;;;;;;1999.90;999.90;;;18.30;99.90;;;;;;4989098;28;20442;-70
2023/06/30 07:25:11;;;;;;;1999.90;999.90;;;18.20;99.90;;;;;;4991833;28;20505;-70
2023/06/30 07:27:38;;;;;;;1999.90;999.90;;;18.10;99.90;;;;;;4989613;28;21032;-70
2023/06/30 07:30:06;;;;;;;1999.90;999.90;;;18.00;99.90;;;;;;4995089;28;20520;-70
2023/06/30 07:32:35;;;;;;;1999.90;999.90;;;17.80;99.90;;;;;;4984276;28;20550;-71
2023/06/30 07:35:02;;;;;;;1999.90;999.90;;;17.30;99.90;;;;;;4991747;28;20984;-70
2023/06/30 07:37:29;;;;;;;1999.90;999.90;;;17.70;99.90;;;;;;4990296;28;20441;-69
2023/06/30 07:39:56;;;;;;;1999.90;999.90;;;17.70;99.90;;;;;;4988058;28;20442;-70
2023/06/30 07:42:23;;;;;;;1999.90;999.90;;;17.80;99.90;;;;;;4989869;28;20442;-70
2023/06/30 07:44:50;;;;;;;1999.90;999.90;;;17.80;99.90;;;;;;4991739;28;20429;-70
2023/06/30 07:47:18;;;;;;;1999.90;999.90;;;17.90;99.90;;;;;;4991168;28;20466;-69
2023/06/30 07:49:46;;;;;;;1999.90;999.90;;;18.00;99.90;;;;;;4990734;28;20529;-70
2023/06/30 07:52:12;;;;;;;1999.90;999.90;;;18.00;99.90;;;;;;4989976;28;20430;-71
2023/06/30 07:54:40;;;;;;;1999.90;999.90;;;18.10;99.90;;;;;;4991498;28;20418;-71
2023/06/30 07:57:06;;;;;;;1999.90;999.90;;;18.30;99.90;;;;;;4991480;28;20456;-71
2023/06/30 07:59:33;;;;;;;1999.90;999.90;;;18.20;99.90;;;;;;4990550;28;20517;-70
2023/06/30 08:02:00;;;;;;;1999.90;999.90;;;18.30;99.90;;;;;;4990278;28;20438;-71
2023/06/30 08:04:27;;;;;;;1999.90;999.90;;;18.60;99.90;;;;;;4990802;28;20445;-69
2023/06/30 08:06:55;;;;;;;1999.90;999.90;;;18.30;99.90;;;;;;4989817;28;20438;-71
2023/06/30 08:09:21;;;;;;;1999.90;999.90;;;18.30;99.90;;;;;;4990941;28;20457;-70
2023/06/30 08:11:48;;;;;;;1999.90;999.90;;;18.40;99.90;;;;;;4990754;28;20428;-70
2023/06/30 08:14:15;;;;;;;1999.90;999.90;;;18.30;99.90;;;;;;4983034;28;20476;-71
2023/06/30 08:16:41;;;;;;;1999.90;999.90;;;18.50;99.90;;;;;;4989432;28;20442;-71
2023/06/30 08:19:08;;;;;;;1999.90;999.90;;;18.20;99.90;;;;;;4986526;28;20497;-68
2023/06/30 08:21:35;;;;;;;1999.90;999.90;;;18.20;99.90;;;;;;4990178;28;20422;-69
2023/06/30 08:24:02;;;;;;;1999.90;999.90;;;18.20;99.90;;;;;;4988108;28;20449;-70
2023/06/30 08:26:29;;;;;;;1999.90;999.90;;;18.20;99.90;;;;;;4990931;28;20423;-70
2023/06/30 08:28:56;;;;;;;1999.90;999.90;;;18.20;99.90;;;;;;4990069;28;20485;-72
2023/06/30 08:31:22;;;;;;;1999.90;999.90;;;18.20;99.90;;;;;;4990437;28;20507;-70
2023/06/30 08:33:49;;;;;;;1999.90;999.90;;;18.10;99.90;;;;;;4991439;28;20837;-70
2023/06/30 08:36:16;;;;;;;1999.90;999.90;;;18.10;99.90;;;;;;4992461;28;20504;-70
2023/06/30 08:38:42;;;;;;;1999.90;999.90;;;18.10;99.90;;;;;;4994345;28;20434;-70
2023/06/30 08:41:11;;;;;;;1999.90;999.90;;;18.00;99.90;;;;;;4995058;28;20422;-71
2023/06/30 08:43:40;;;;;;;1999.90;999.90;;;18.00;99.90;;;;;;4991114;28;20591;-72
2023/06/30 08:46:09;;;;;;;1999.90;999.90;;;17.90;99.90;;;;;;4993483;28;20442;-71
2023/06/30 08:48:37;;;;;;;1999.90;999.90;;;17.90;99.90;;;;;;4990268;28;20496;-74
2023/06/30 08:51:04;;;;;;;1999.90;999.90;;;17.80;99.90;;;;;;4991600;28;21164;-71
2023/06/30 08:53:32;;;;;;;1999.90;999.90;;;17.80;99.90;;;;;;4991005;28;20434;-70
2023/06/30 08:55:59;;;;;;;1999.90;999.90;;;17.70;99.90;;;;;;4991857;28;20430;-71
2023/06/30 08:58:29;;;;;;;1999.90;999.90;;;17.60;99.90;;;;;;4994844;28;20521;-70
2023/06/30 09:00:56;;;;;;;1999.90;999.90;;;17.60;99.90;;;;;;4975088;28;20435;-70
2023/06/30 09:03:23;;;;;;;1999.90;999.90;;;17.60;99.90;;;;;;4974338;28;20842;-70
2023/06/30 09:05:53;;;;;;;1999.90;999.90;;;17.60;99.90;;;;;;4988564;28;21031;-69
2023/06/30 09:08:23;;;;;;;1999.90;999.90;;;17.50;99.90;;;;;;4994990;28;20424;-69
2023/06/30 09:10:50;;;;;;;1999.90;999.90;;;17.40;99.90;;;;;;4994865;28;20422;-70
2023/06/30 09:13:18;;;;;;;1999.90;999.90;;;17.30;99.90;;;;;;4993514;28;20840;-70
2023/06/30 09:15:47;;;;;;;1999.90;999.90;;;17.30;99.90;;;;;;4993909;28;20527;-71
2023/06/30 09:18:14;;;;;;;1999.90;999.90;;;17.20;99.90;;;;;;4993196;28;20793;-70
2023/06/30 09:20:41;;;;;;;1999.90;999.90;;;17.20;99.90;;;;;;4988093;28;20414;-70
2023/06/30 09:23:08;;;;;;;1999.90;999.90;;;17.10;99.90;;;;;;4993600;28;20422;-73
2023/06/30 09:25:39;;;;;;;1999.90;999.90;;;17.10;99.90;;;;;;4994446;28;20964;-72
2023/06/30 09:28:09;;;;;;;1999.90;999.90;;;17.10;99.90;;;;;;4994248;28;20426;-73
2023/06/30 09:30:38;;;;;;;1999.90;999.90;;;17.10;99.90;;;;;;4994218;28;20426;-73
2023/06/30 09:33:07;;;;;;;1999.90;999.90;;;17.10;99.90;;;;;;4993168;28;20422;-72
2023/06/30 09:35:38;;;;;;;1999.90;999.90;;;17.10;99.90;;;;;;4994299;28;20420;-72
2023/06/30 09:38:09;;;;;;;1999.90;999.90;;;17.10;99.90;;;;;;4993939;28;20453;-72
2023/06/30 09:40:36;;;;;;;1999.90;999.90;;;17.10;99.90;;;;;;4992817;28;20445;-71
2023/06/30 09:43:02;;;;;;;1999.90;999.90;;;16.90;99.90;;;;;;4992790;28;21042;-72
2023/06/30 09:45:29;;;;;;;1999.90;999.90;;;16.90;99.90;;;;;;4993244;28;20469;-72
2023/06/30 09:47:56;;;;;;;1999.90;999.90;;;16.90;99.90;;;;;;4993770;28;20897;-72
2023/06/30 09:50:25;;;;;;;1999.90;999.90;;;16.90;99.90;;;;;;4992447;28;20446;-72
2023/06/30 09:52:52;;;;;;;1999.90;999.90;;;16.90;99.90;;;;;;4992905;28;20509;-72
2023/06/30 09:55:19;;;;;;;1999.90;999.90;;;16.90;99.90;;;;;;4993690;28;20434;-70
2023/06/30 09:57:46;;;;;;;1999.90;999.90;;;16.90;99.90;;;;;;4993705;28;20905;-71
2023/06/30 10:00:14;;;;;;;1999.90;999.90;;;16.90;99.90;;;;;;4992635;28;20503;-72
2023/06/30 10:02:42;;;;;;;1999.90;999.90;;;17.00;99.90;;;;;;4992930;28;20438;-69
2023/06/30 10:05:09;;;;;;;1999.90;999.90;;;17.10;99.90;;;;;;4993813;28;20426;-72
2023/06/30 10:07:39;;;;;;;1999.90;999.90;;;17.20;99.90;;;;;;4990626;28;20434;-72
2023/06/30 10:10:10;;;;;;;1999.90;999.90;;;17.10;99.90;;;;;;4993019;28;20434;-73
2023/06/30 10:12:38;;;;;;;1999.90;999.90;;;17.10;99.90;;;;;;4991130;28;20521;-73
2023/06/30 10:15:09;;;;;;;1999.90;999.90;;;17.30;99.90;;;;;;4993583;28;20512;-72
2023/06/30 10:17:37;;;;;;;1999.90;999.90;;;17.30;99.90;;;;;;4993601;28;20430;-73
2023/06/30 10:20:08;;;;;;;1999.90;999.90;;;17.40;99.90;;;;;;4993559;28;20418;-72
2023/06/30 10:22:37;;;;;;;1999.90;999.90;;;17.30;99.90;;;;;;4988994;28;20445;-72
2023/06/30 10:25:06;;;;;;;1999.90;999.90;;;17.30;99.90;;;;;;4990537;28;20960;-72
2023/06/30 10:27:34;;;;;;;1999.90;999.90;;;17.30;99.90;;;;;;4990482;28;20472;-72
2023/06/30 10:30:01;;;;;;;1999.90;999.90;;;17.30;99.90;;;;;;4992660;28;20976;-72
2023/06/30 10:32:28;;;;;;;1999.90;999.90;;;17.30;99.90;;;;;;4991459;28;20484;-72
2023/06/30 10:34:56;;;;;;;1999.90;999.90;;;17.30;99.90;;;;;;4992939;28;20488;-73
2023/06/30 10:37:23;;;;;;;1999.90;999.90;;;17.40;99.90;;;;;;4992011;28;20430;-71
2023/06/30 10:39:51;;;;;;;1999.90;999.90;;;17.40;99.90;;;;;;4986326;28;20500;-72
2023/06/30 10:42:20;;;;;;;1999.90;999.90;;;17.40;99.90;;;;;;4989016;28;20442;-71
2023/06/30 10:44:47;;;;;;;1999.90;999.90;;;17.60;99.90;;;;;;4990711;28;20466;-73
2023/06/30 10:47:14;;;;;;;1999.90;999.90;;;17.70;99.90;;;;;;4991277;28;21096;-73
2023/06/30 10:49:42;;;;;;;1999.90;999.90;;;17.70;99.90;;;;;;4992299;28;20415;-72
2023/06/30 10:52:10;;;;;;;1999.90;999.90;;;17.70;99.90;;;;;;4988046;28;20434;-74
2023/06/30 10:54:41;;;;;;;1999.90;999.90;;;17.70;99.90;;;;;;4991702;28;20980;-72
2023/06/30 10:57:13;;;;;;;1999.90;999.90;;;17.80;99.90;;;;;;4989392;28;20431;-72
2023/06/30 10:59:42;;;;;;;1999.90;999.90;;;17.80;99.90;;;;;;4993073;28;20427;-72
2023/06/30 11:02:31;;;;;;;1999.90;999.90;;;17.90;99.90;;;;;;4991229;28;20438;-72
2023/06/30 11:05:18;;;;;;;1999.90;999.90;;;18.10;99.90;;;;;;4985128;28;20438;-73
2023/06/30 11:07:47;;;;;;;1999.90;999.90;;;18.30;99.90;;;;;;4986175;28;20454;-72
2023/06/30 11:10:14;;;;;;;1999.90;999.90;;;18.40;99.90;;;;;;4992047;28;20426;-73
2023/06/30 11:12:55;;;;;;;1999.90;999.90;;;18.40;99.90;;;;;;4989640;28;20438;-73
2023/06/30 11:15:27;;;;;;;1999.90;999.90;;;18.40;99.90;;;;;;4988658;28;20805;-74
2023/06/30 11:18:01;;;;;;;1999.90;999.90;;;18.50;99.90;;;;;;4990824;28;20430;-72
2023/06/30 11:20:29;;;;;;;1999.90;999.90;;;18.40;99.90;;;;;;4989003;28;20533;-72
2023/06/30 11:22:57;;;;;;;1999.90;999.90;;;18.50;99.90;;;;;;4984402;28;20446;-72
2023/06/30 11:25:24;;;;;;;1999.90;999.90;;;18.50;99.90;;;;;;4988164;28;20442;-74
2023/06/30 11:27:51;;;;;;;1999.90;999.90;;;18.50;99.90;;;;;;4989690;28;20434;-72
2023/06/30 11:30:21;;;;;;;1999.90;999.90;;;18.50;99.90;;;;;;4990047;28;20434;-73
2023/06/30 11:32:48;;;;;;;1999.90;999.90;;;18.60;99.90;;;;;;4987885;28;20521;-70
2023/06/30 11:35:18;;;;;;;1999.90;999.90;;;18.50;99.90;;;;;;4988295;28;20504;-73
2023/06/30 11:37:48;;;;;;;1999.90;999.90;;;18.50;99.90;;;;;;4984153;28;20452;-72
2023/06/30 11:40:15;;;;;;;1999.90;999.90;;;18.60;99.90;;;;;;4989936;28;20488;-71
2023/06/30 11:42:42;;;;;;;1999.90;999.90;;;18.60;99.90;;;;;;4988300;28;20513;-73
2023/06/30 11:45:09;;;;;;;1999.90;999.90;;;18.60;99.90;;;;;;4989069;28;20863;-73
2023/06/30 11:47:44;;;;;;;1999.90;999.90;;;18.50;99.90;;;;;;4989498;28;20430;-73
2023/06/30 11:50:12;;;;;;;1999.90;999.90;;;18.60;99.90;;;;;;4989105;28;20434;-72
2023/06/30 11:52:40;;;;;;;1999.90;999.90;;;18.60;99.90;;;;;;4988410;28;20477;-72
2023/06/30 11:55:06;;;;;;;1999.90;999.90;;;18.70;99.90;;;;;;4989269;28;20878;-73
2023/06/30 11:57:36;;;;;;;1999.90;999.90;;;18.70;99.90;;;;;;4989286;28;20435;-73
2023/06/30 12:00:11;;;;;;;1999.90;999.90;;;18.80;99.90;;;;;;4988176;28;20739;-72
2023/06/30 12:02:43;;;;;;;1999.90;999.90;;;18.70;99.90;;;;;;4983794;28;20469;-73